sensor_id;sensor_type;location;lat;lon;timestamp;P1;durP1;ratioP1;P2;durP2;ratioP2
38865;SDS011;62686;48.984;8.394;2023-04-25T00:00:25;7.70;;;4.30;;
38865;SDS011;62686;48.984;8.394;2023-04-25T00:02:57;5.10;;;4.57;;
38865;SDS011;62686;48.984;8.394;2023-04-25T00:05:26;5.90;;;4.70;;
38865;SDS011;62686;48.984;8.394;2023-04-25T00:07:55;5.67;;;4.67;;
38865;SDS011;62686;48.984;8.394;2023-04-25T00:10:25;6.13;;;4.43;;
38865;SDS011;62686;48.984;8.394;2023-04-25T00:15:29;6.80;;;4.67;;
38865;SDS011;62686;48.984;8.394;2023-04-25T00:18:00;4.73;;;4.00;;
38865;SDS011;62686;48.984;8.394;2023-04-25T00:20:28;4.73;;;4.27;;
38865;SDS011;62686;48.984;8.394;2023-04-25T00:22:57;4.10;;;3.70;;
38865;SDS011;62686;48.984;8.394;2023-04-25T00:25:26;4.67;;;3.90;;
38865;SDS011;62686;48.984;8.394;2023-04-25T00:27:55;4.63;;;3.83;;
38865;SDS011;62686;48.984;8.394;2023-04-25T00:30:24;4.50;;;3.23;;
38865;SDS011;62686;48.984;8.394;2023-04-25T00:32:53;3.97;;;3.57;;
38865;SDS011;62686;48.984;8.394;2023-04-25T00:35:23;4.60;;;3.13;;
38865;SDS011;62686;48.984;8.394;2023-04-25T00:37:51;4.37;;;3.40;;
38865;SDS011;62686;48.984;8.394;2023-04-25T00:40:20;4.27;;;3.07;;
38865;SDS011;62686;48.984;8.394;2023-04-25T00:42:48;3.23;;;2.90;;
38865;SDS011;62686;48.984;8.394;2023-04-25T00:45:19;3.63;;;3.00;;
38865;SDS011;62686;48.984;8.394;2023-04-25T00:47:47;3.17;;;2.70;;
38865;SDS011;62686;48.984;8.394;2023-04-25T00:50:17;6.93;;;3.17;;
38865;SDS011;62686;48.984;8.394;2023-04-25T00:52:47;4.70;;;3.17;;
38865;SDS011;62686;48.984;8.394;2023-04-25T00:55:17;3.80;;;3.17;;
38865;SDS011;62686;48.984;8.394;2023-04-25T00:57:47;3.53;;;3.10;;
38865;SDS011;62686;48.984;8.394;2023-04-25T01:00:25;3.03;;;2.73;;
38865;SDS011;62686;48.984;8.394;2023-04-25T01:03:14;4.90;;;3.30;;
38865;SDS011;62686;48.984;8.394;2023-04-25T01:05:46;3.60;;;2.83;;
38865;SDS011;62686;48.984;8.394;2023-04-25T01:08:16;3.10;;;2.63;;
38865;SDS011;62686;48.984;8.394;2023-04-25T01:10:45;4.57;;;2.93;;
38865;SDS011;62686;48.984;8.394;2023-04-25T01:13:13;3.87;;;2.73;;
38865;SDS011;62686;48.984;8.394;2023-04-25T01:15:42;4.30;;;3.10;;
38865;SDS011;62686;48.984;8.394;2023-04-25T01:18:10;4.57;;;3.03;;
38865;SDS011;62686;48.984;8.394;2023-04-25T01:20:40;5.80;;;2.90;;
38865;SDS011;62686;48.984;8.394;2023-04-25T01:23:11;4.40;;;2.83;;
38865;SDS011;62686;48.984;8.394;2023-04-25T01:25:40;4.70;;;3.00;;
38865;SDS011;62686;48.984;8.394;2023-04-25T01:28:08;3.40;;;3.10;;
38865;SDS011;62686;48.984;8.394;2023-04-25T01:30:37;3.80;;;3.00;;
38865;SDS011;62686;48.984;8.394;2023-04-25T01:33:07;5.00;;;3.00;;
38865;SDS011;62686;48.984;8.394;2023-04-25T01:35:36;4.60;;;2.70;;
38865;SDS011;62686;48.984;8.394;2023-04-25T01:38:08;4.37;;;3.03;;
38865;SDS011;62686;48.984;8.394;2023-04-25T01:40:39;3.20;;;2.90;;
38865;SDS011;62686;48.984;8.394;2023-04-25T01:43:08;3.30;;;2.97;;
38865;SDS011;62686;48.984;8.394;2023-04-25T01:45:38;4.63;;;3.60;;
38865;SDS011;62686;48.984;8.394;2023-04-25T01:48:07;3.50;;;3.20;;
38865;SDS011;62686;48.984;8.394;2023-04-25T01:50:37;3.87;;;3.37;;
38865;SDS011;62686;48.984;8.394;2023-04-25T01:53:06;3.83;;;3.27;;
38865;SDS011;62686;48.984;8.394;2023-04-25T01:55:36;5.10;;;3.30;;
38865;SDS011;62686;48.984;8.394;2023-04-25T01:58:08;3.23;;;2.90;;
38865;SDS011;62686;48.984;8.394;2023-04-25T02:00:39;4.07;;;3.20;;
38865;SDS011;62686;48.984;8.394;2023-04-25T02:03:08;3.50;;;3.20;;
38865;SDS011;62686;48.984;8.394;2023-04-25T02:05:37;4.47;;;3.57;;
38865;SDS011;62686;48.984;8.394;2023-04-25T02:08:09;4.80;;;3.40;;
38865;SDS011;62686;48.984;8.394;2023-04-25T02:10:38;3.67;;;3.23;;
38865;SDS011;62686;48.984;8.394;2023-04-25T02:13:08;5.00;;;3.30;;
38865;SDS011;62686;48.984;8.394;2023-04-25T02:15:37;3.77;;;2.90;;
38865;SDS011;62686;48.984;8.394;2023-04-25T02:20:47;4.73;;;3.13;;
38865;SDS011;62686;48.984;8.394;2023-04-25T02:23:16;3.93;;;3.47;;
38865;SDS011;62686;48.984;8.394;2023-04-25T02:25:47;3.90;;;3.47;;
38865;SDS011;62686;48.984;8.394;2023-04-25T02:28:17;4.43;;;3.37;;
38865;SDS011;62686;48.984;8.394;2023-04-25T02:30:45;4.60;;;3.53;;
38865;SDS011;62686;48.984;8.394;2023-04-25T02:33:14;5.83;;;3.30;;
38865;SDS011;62686;48.984;8.394;2023-04-25T02:35:44;3.63;;;3.33;;
38865;SDS011;62686;48.984;8.394;2023-04-25T02:38:12;4.47;;;4.00;;
38865;SDS011;62686;48.984;8.394;2023-04-25T02:40:41;7.57;;;3.80;;
38865;SDS011;62686;48.984;8.394;2023-04-25T02:43:09;4.87;;;3.40;;
38865;SDS011;62686;48.984;8.394;2023-04-25T02:45:40;3.50;;;3.00;;
38865;SDS011;62686;48.984;8.394;2023-04-25T02:48:11;6.30;;;3.40;;
38865;SDS011;62686;48.984;8.394;2023-04-25T02:50:40;3.80;;;3.47;;
38865;SDS011;62686;48.984;8.394;2023-04-25T02:53:08;3.50;;;3.20;;
38865;SDS011;62686;48.984;8.394;2023-04-25T02:55:37;3.77;;;3.47;;
38865;SDS011;62686;48.984;8.394;2023-04-25T02:58:05;4.20;;;3.40;;
38865;SDS011;62686;48.984;8.394;2023-04-25T03:00:34;4.67;;;3.33;;
38865;SDS011;62686;48.984;8.394;2023-04-25T03:03:04;3.33;;;3.03;;
38865;SDS011;62686;48.984;8.394;2023-04-25T03:05:33;7.57;;;3.83;;
38865;SDS011;62686;48.984;8.394;2023-04-25T03:08:02;4.50;;;3.10;;
38865;SDS011;62686;48.984;8.394;2023-04-25T03:10:31;4.30;;;3.87;;
38865;SDS011;62686;48.984;8.394;2023-04-25T03:13:00;6.37;;;3.40;;
38865;SDS011;62686;48.984;8.394;2023-04-25T03:15:31;4.80;;;3.20;;
38865;SDS011;62686;48.984;8.394;2023-04-25T03:18:00;3.50;;;3.10;;
38865;SDS011;62686;48.984;8.394;2023-04-25T03:20:30;4.97;;;3.27;;
38865;SDS011;62686;48.984;8.394;2023-04-25T03:22:58;5.17;;;3.57;;
38865;SDS011;62686;48.984;8.394;2023-04-25T03:25:26;4.10;;;3.30;;
38865;SDS011;62686;48.984;8.394;2023-04-25T03:27:55;4.60;;;3.30;;
38865;SDS011;62686;48.984;8.394;2023-04-25T03:30:26;3.90;;;3.57;;
38865;SDS011;62686;48.984;8.394;2023-04-25T03:32:55;4.30;;;3.60;;
38865;SDS011;62686;48.984;8.394;2023-04-25T03:35:23;3.37;;;3.00;;
38865;SDS011;62686;48.984;8.394;2023-04-25T03:37:53;3.77;;;3.43;;
38865;SDS011;62686;48.984;8.394;2023-04-25T03:40:22;5.97;;;3.63;;
38865;SDS011;62686;48.984;8.394;2023-04-25T03:42:51;4.03;;;3.50;;
38865;SDS011;62686;48.984;8.394;2023-04-25T03:45:20;4.63;;;3.43;;
38865;SDS011;62686;48.984;8.394;2023-04-25T03:47:48;4.43;;;3.73;;
38865;SDS011;62686;48.984;8.394;2023-04-25T03:50:19;3.83;;;3.53;;
38865;SDS011;62686;48.984;8.394;2023-04-25T03:52:48;5.13;;;3.40;;
38865;SDS011;62686;48.984;8.394;2023-04-25T03:55:17;4.80;;;4.00;;
38865;SDS011;62686;48.984;8.394;2023-04-25T03:57:46;5.23;;;3.70;;
38865;SDS011;62686;48.984;8.394;2023-04-25T04:00:14;5.60;;;4.03;;
38865;SDS011;62686;48.984;8.394;2023-04-25T04:02:43;5.43;;;3.70;;
38865;SDS011;62686;48.984;8.394;2023-04-25T04:05:16;5.50;;;4.20;;
38865;SDS011;62686;48.984;8.394;2023-04-25T04:07:44;5.27;;;3.70;;
38865;SDS011;62686;48.984;8.394;2023-04-25T04:10:13;4.10;;;3.70;;
38865;SDS011;62686;48.984;8.394;2023-04-25T04:12:45;6.87;;;4.00;;
38865;SDS011;62686;48.984;8.394;2023-04-25T04:15:14;4.57;;;4.00;;
38865;SDS011;62686;48.984;8.394;2023-04-25T04:17:44;4.57;;;4.10;;
38865;SDS011;62686;48.984;8.394;2023-04-25T04:20:13;4.17;;;3.73;;
38865;SDS011;62686;48.984;8.394;2023-04-25T04:22:42;8.67;;;4.53;;
38865;SDS011;62686;48.984;8.394;2023-04-25T04:25:10;5.00;;;4.10;;
38865;SDS011;62686;48.984;8.394;2023-04-25T04:27:40;5.73;;;3.93;;
38865;SDS011;62686;48.984;8.394;2023-04-25T04:30:10;4.67;;;4.20;;
38865;SDS011;62686;48.984;8.394;2023-04-25T04:32:39;5.33;;;4.00;;
38865;SDS011;62686;48.984;8.394;2023-04-25T04:35:08;5.70;;;4.50;;
38865;SDS011;62686;48.984;8.394;2023-04-25T04:37:37;7.70;;;4.17;;
38865;SDS011;62686;48.984;8.394;2023-04-25T04:40:09;6.07;;;4.27;;
38865;SDS011;62686;48.984;8.394;2023-04-25T04:42:44;7.63;;;4.47;;
38865;SDS011;62686;48.984;8.394;2023-04-25T04:45:26;6.17;;;4.20;;
38865;SDS011;62686;48.984;8.394;2023-04-25T04:47:55;4.53;;;3.90;;
38865;SDS011;62686;48.984;8.394;2023-04-25T04:50:24;7.87;;;4.30;;
38865;SDS011;62686;48.984;8.394;2023-04-25T04:52:54;5.30;;;3.97;;
38865;SDS011;62686;48.984;8.394;2023-04-25T04:55:23;4.63;;;4.00;;
38865;SDS011;62686;48.984;8.394;2023-04-25T04:57:52;6.07;;;4.03;;
38865;SDS011;62686;48.984;8.394;2023-04-25T05:00:21;5.03;;;4.33;;
38865;SDS011;62686;48.984;8.394;2023-04-25T05:02:54;4.77;;;3.90;;
38865;SDS011;62686;48.984;8.394;2023-04-25T05:05:33;4.40;;;3.80;;
38865;SDS011;62686;48.984;8.394;2023-04-25T05:08:16;5.37;;;3.73;;
38865;SDS011;62686;48.984;8.394;2023-04-25T05:10:50;7.47;;;4.20;;
38865;SDS011;62686;48.984;8.394;2023-04-25T05:13:25;4.50;;;4.10;;
38865;SDS011;62686;48.984;8.394;2023-04-25T05:15:54;4.90;;;4.20;;
38865;SDS011;62686;48.984;8.394;2023-04-25T05:18:26;4.43;;;3.73;;
38865;SDS011;62686;48.984;8.394;2023-04-25T05:20:56;7.63;;;4.30;;
38865;SDS011;62686;48.984;8.394;2023-04-25T05:23:27;7.63;;;4.50;;
38865;SDS011;62686;48.984;8.394;2023-04-25T05:25:59;4.77;;;4.10;;
38865;SDS011;62686;48.984;8.394;2023-04-25T05:28:28;4.97;;;4.13;;
38865;SDS011;62686;48.984;8.394;2023-04-25T05:30:57;8.03;;;4.03;;
38865;SDS011;62686;48.984;8.394;2023-04-25T05:33:29;4.17;;;3.73;;
38865;SDS011;62686;48.984;8.394;2023-04-25T05:39:22;4.37;;;3.97;;
38865;SDS011;62686;48.984;8.394;2023-04-25T05:41:51;5.00;;;3.53;;
38865;SDS011;62686;48.984;8.394;2023-04-25T05:44:20;4.90;;;3.50;;
38865;SDS011;62686;48.984;8.394;2023-04-25T05:46:52;4.30;;;3.90;;
38865;SDS011;62686;48.984;8.394;2023-04-25T05:49:23;4.60;;;3.37;;
38865;SDS011;62686;48.984;8.394;2023-04-25T05:51:57;5.23;;;3.47;;
38865;SDS011;62686;48.984;8.394;2023-04-25T05:54:28;4.17;;;3.47;;
38865;SDS011;62686;48.984;8.394;2023-04-25T05:56:56;3.53;;;3.17;;
38865;SDS011;62686;48.984;8.394;2023-04-25T05:59:25;5.57;;;3.37;;
38865;SDS011;62686;48.984;8.394;2023-04-25T06:01:54;7.73;;;5.00;;
38865;SDS011;62686;48.984;8.394;2023-04-25T06:04:26;4.50;;;3.47;;
38865;SDS011;62686;48.984;8.394;2023-04-25T06:06:55;3.70;;;3.40;;
38865;SDS011;62686;48.984;8.394;2023-04-25T06:09:26;5.03;;;3.87;;
38865;SDS011;62686;48.984;8.394;2023-04-25T06:11:54;4.40;;;3.67;;
38865;SDS011;62686;48.984;8.394;2023-04-25T06:14:23;5.13;;;3.80;;
38865;SDS011;62686;48.984;8.394;2023-04-25T06:16:53;4.60;;;3.50;;
38865;SDS011;62686;48.984;8.394;2023-04-25T06:19:25;6.20;;;4.27;;
38865;SDS011;62686;48.984;8.394;2023-04-25T06:21:54;8.47;;;4.37;;
38865;SDS011;62686;48.984;8.394;2023-04-25T06:24:22;5.00;;;3.90;;
38865;SDS011;62686;48.984;8.394;2023-04-25T06:26:51;7.20;;;4.10;;
38865;SDS011;62686;48.984;8.394;2023-04-25T06:29:22;6.23;;;4.73;;
38865;SDS011;62686;48.984;8.394;2023-04-25T06:31:50;5.43;;;4.67;;
38865;SDS011;62686;48.984;8.394;2023-04-25T06:34:19;5.23;;;4.73;;
38865;SDS011;62686;48.984;8.394;2023-04-25T06:36:49;5.07;;;4.60;;
38865;SDS011;62686;48.984;8.394;2023-04-25T06:39:17;5.77;;;4.70;;
38865;SDS011;62686;48.984;8.394;2023-04-25T06:41:46;5.57;;;4.97;;
38865;SDS011;62686;48.984;8.394;2023-04-25T06:44:14;5.77;;;5.00;;
38865;SDS011;62686;48.984;8.394;2023-04-25T06:46:43;6.30;;;4.97;;
38865;SDS011;62686;48.984;8.394;2023-04-25T06:49:11;5.80;;;5.20;;
38865;SDS011;62686;48.984;8.394;2023-04-25T06:51:40;5.43;;;4.93;;
38865;SDS011;62686;48.984;8.394;2023-04-25T06:54:10;6.27;;;5.57;;
38865;SDS011;62686;48.984;8.394;2023-04-25T06:56:38;6.20;;;5.60;;
38865;SDS011;62686;48.984;8.394;2023-04-25T06:59:06;6.70;;;5.40;;
38865;SDS011;62686;48.984;8.394;2023-04-25T07:01:35;6.43;;;5.77;;
38865;SDS011;62686;48.984;8.394;2023-04-25T07:04:03;7.37;;;5.40;;
38865;SDS011;62686;48.984;8.394;2023-04-25T07:06:32;9.93;;;6.00;;
38865;SDS011;62686;48.984;8.394;2023-04-25T07:09:00;10.73;;;6.30;;
38865;SDS011;62686;48.984;8.394;2023-04-25T07:11:30;6.93;;;5.47;;
38865;SDS011;62686;48.984;8.394;2023-04-25T07:13:58;6.33;;;5.60;;
38865;SDS011;62686;48.984;8.394;2023-04-25T07:16:27;6.23;;;5.57;;
38865;SDS011;62686;48.984;8.394;2023-04-25T07:18:56;6.37;;;5.73;;
38865;SDS011;62686;48.984;8.394;2023-04-25T07:21:25;11.07;;;6.30;;
38865;SDS011;62686;48.984;8.394;2023-04-25T07:23:54;9.13;;;5.77;;
38865;SDS011;62686;48.984;8.394;2023-04-25T07:26:23;8.07;;;6.13;;
38865;SDS011;62686;48.984;8.394;2023-04-25T07:28:52;8.30;;;6.23;;
38865;SDS011;62686;48.984;8.394;2023-04-25T07:31:21;7.17;;;5.33;;
38865;SDS011;62686;48.984;8.394;2023-04-25T07:33:50;6.50;;;5.73;;
38865;SDS011;62686;48.984;8.394;2023-04-25T07:36:18;6.43;;;5.77;;
38865;SDS011;62686;48.984;8.394;2023-04-25T07:38:47;7.00;;;5.70;;
38865;SDS011;62686;48.984;8.394;2023-04-25T07:41:16;6.00;;;5.40;;
38865;SDS011;62686;48.984;8.394;2023-04-25T07:43:49;6.43;;;5.70;;
38865;SDS011;62686;48.984;8.394;2023-04-25T07:46:19;11.43;;;6.10;;
38865;SDS011;62686;48.984;8.394;2023-04-25T07:48:47;9.73;;;6.53;;
38865;SDS011;62686;48.984;8.394;2023-04-25T07:51:18;8.17;;;6.60;;
38865;SDS011;62686;48.984;8.394;2023-04-25T07:53:48;6.53;;;5.70;;
38865;SDS011;62686;48.984;8.394;2023-04-25T07:56:17;7.47;;;6.20;;
38865;SDS011;62686;48.984;8.394;2023-04-25T07:58:45;7.07;;;6.13;;
38865;SDS011;62686;48.984;8.394;2023-04-25T08:01:13;6.10;;;5.40;;
38865;SDS011;62686;48.984;8.394;2023-04-25T08:03:44;6.77;;;6.17;;
38865;SDS011;62686;48.984;8.394;2023-04-25T08:06:12;10.83;;;6.63;;
38865;SDS011;62686;48.984;8.394;2023-04-25T08:08:40;7.67;;;6.13;;
38865;SDS011;62686;48.984;8.394;2023-04-25T08:11:09;7.87;;;6.83;;
38865;SDS011;62686;48.984;8.394;2023-04-25T08:13:38;7.97;;;7.17;;
38865;SDS011;62686;48.984;8.394;2023-04-25T08:16:06;7.50;;;6.70;;
38865;SDS011;62686;48.984;8.394;2023-04-25T08:18:34;7.90;;;7.10;;
38865;SDS011;62686;48.984;8.394;2023-04-25T08:21:04;10.10;;;7.57;;
38865;SDS011;62686;48.984;8.394;2023-04-25T08:23:35;8.57;;;7.47;;
38865;SDS011;62686;48.984;8.394;2023-04-25T08:26:04;10.33;;;8.00;;
38865;SDS011;62686;48.984;8.394;2023-04-25T08:28:33;8.63;;;7.80;;
38865;SDS011;62686;48.984;8.394;2023-04-25T08:31:01;8.93;;;8.00;;
38865;SDS011;62686;48.984;8.394;2023-04-25T08:33:30;9.20;;;8.30;;
38865;SDS011;62686;48.984;8.394;2023-04-25T08:35:59;9.93;;;7.50;;
38865;SDS011;62686;48.984;8.394;2023-04-25T08:38:28;9.57;;;8.53;;
38865;SDS011;62686;48.984;8.394;2023-04-25T08:40:57;8.97;;;8.07;;
38865;SDS011;62686;48.984;8.394;2023-04-25T08:43:27;8.43;;;7.57;;
38865;SDS011;62686;48.984;8.394;2023-04-25T08:45:58;8.87;;;7.70;;
38865;SDS011;62686;48.984;8.394;2023-04-25T08:48:28;9.13;;;8.20;;
38865;SDS011;62686;48.984;8.394;2023-04-25T08:50:59;9.07;;;8.20;;
38865;SDS011;62686;48.984;8.394;2023-04-25T08:53:32;9.03;;;7.97;;
38865;SDS011;62686;48.984;8.394;2023-04-25T08:56:01;8.87;;;7.97;;
38865;SDS011;62686;48.984;8.394;2023-04-25T08:58:29;10.03;;;8.43;;
38865;SDS011;62686;48.984;8.394;2023-04-25T09:00:59;9.67;;;8.67;;
38865;SDS011;62686;48.984;8.394;2023-04-25T09:03:28;8.97;;;8.07;;
38865;SDS011;62686;48.984;8.394;2023-04-25T09:05:57;11.03;;;8.27;;
38865;SDS011;62686;48.984;8.394;2023-04-25T09:08:26;10.87;;;8.93;;
38865;SDS011;62686;48.984;8.394;2023-04-25T09:10:56;9.53;;;8.20;;
38865;SDS011;62686;48.984;8.394;2023-04-25T09:13:25;9.63;;;8.63;;
38865;SDS011;62686;48.984;8.394;2023-04-25T09:15:55;11.07;;;9.00;;
38865;SDS011;62686;48.984;8.394;2023-04-25T09:18:24;11.10;;;9.87;;
38865;SDS011;62686;48.984;8.394;2023-04-25T09:20:56;10.40;;;9.40;;
38865;SDS011;62686;48.984;8.394;2023-04-25T09:23:27;11.10;;;9.87;;
38865;SDS011;62686;48.984;8.394;2023-04-25T09:25:57;14.77;;;9.63;;
38865;SDS011;62686;48.984;8.394;2023-04-25T09:28:26;11.67;;;10.40;;
38865;SDS011;62686;48.984;8.394;2023-04-25T09:30:56;12.20;;;10.83;;
38865;SDS011;62686;48.984;8.394;2023-04-25T09:33:28;11.87;;;10.67;;
38865;SDS011;62686;48.984;8.394;2023-04-25T09:36:02;11.70;;;10.50;;
38865;SDS011;62686;48.984;8.394;2023-04-25T09:38:31;13.07;;;11.20;;
38865;SDS011;62686;48.984;8.394;2023-04-25T09:41:08;13.73;;;10.10;;
38865;SDS011;62686;48.984;8.394;2023-04-25T09:43:37;13.00;;;11.53;;
38865;SDS011;62686;48.984;8.394;2023-04-25T09:46:07;13.00;;;10.50;;
38865;SDS011;62686;48.984;8.394;2023-04-25T09:48:37;13.93;;;11.70;;
38865;SDS011;62686;48.984;8.394;2023-04-25T09:51:06;14.90;;;11.83;;
38865;SDS011;62686;48.984;8.394;2023-04-25T09:53:35;12.00;;;7.77;;
38865;SDS011;62686;48.984;8.394;2023-04-25T09:56:07;7.20;;;6.50;;
38865;SDS011;62686;48.984;8.394;2023-04-25T09:58:38;12.27;;;8.20;;
38865;SDS011;62686;48.984;8.394;2023-04-25T10:01:08;11.57;;;7.97;;
38865;SDS011;62686;48.984;8.394;2023-04-25T10:03:37;10.63;;;8.30;;
38865;SDS011;62686;48.984;8.394;2023-04-25T10:06:08;9.97;;;7.80;;
38865;SDS011;62686;48.984;8.394;2023-04-25T10:08:42;9.30;;;7.87;;
38865;SDS011;62686;48.984;8.394;2023-04-25T10:11:13;12.47;;;7.67;;
38865;SDS011;62686;48.984;8.394;2023-04-25T10:13:42;7.63;;;6.83;;
38865;SDS011;62686;48.984;8.394;2023-04-25T10:16:11;10.77;;;7.87;;
38865;SDS011;62686;48.984;8.394;2023-04-25T10:18:41;11.73;;;9.70;;
38865;SDS011;62686;48.984;8.394;2023-04-25T10:21:09;10.93;;;9.83;;
38865;SDS011;62686;48.984;8.394;2023-04-25T10:23:38;11.63;;;10.43;;
38865;SDS011;62686;48.984;8.394;2023-04-25T10:26:08;11.37;;;10.17;;
38865;SDS011;62686;48.984;8.394;2023-04-25T10:31:28;12.23;;;10.13;;
38865;SDS011;62686;48.984;8.394;2023-04-25T10:33:58;15.43;;;10.37;;
38865;SDS011;62686;48.984;8.394;2023-04-25T10:36:27;13.53;;;10.57;;
38865;SDS011;62686;48.984;8.394;2023-04-25T10:39:02;11.83;;;9.43;;
38865;SDS011;62686;48.984;8.394;2023-04-25T10:41:45;12.27;;;9.60;;
38865;SDS011;62686;48.984;8.394;2023-04-25T10:44:16;11.93;;;9.17;;
38865;SDS011;62686;48.984;8.394;2023-04-25T10:46:44;9.93;;;8.60;;
38865;SDS011;62686;48.984;8.394;2023-04-25T10:49:28;9.07;;;7.50;;
38865;SDS011;62686;48.984;8.394;2023-04-25T10:54:42;11.37;;;7.40;;
38865;SDS011;62686;48.984;8.394;2023-04-25T11:00:00;7.77;;;7.07;;
38865;SDS011;62686;48.984;8.394;2023-04-25T11:02:36;7.00;;;6.30;;
38865;SDS011;62686;48.984;8.394;2023-04-25T11:05:05;8.10;;;7.30;;
38865;SDS011;62686;48.984;8.394;2023-04-25T11:07:37;8.43;;;7.17;;
38865;SDS011;62686;48.984;8.394;2023-04-25T11:10:09;10.07;;;7.53;;
38865;SDS011;62686;48.984;8.394;2023-04-25T11:12:41;10.63;;;7.63;;
38865;SDS011;62686;48.984;8.394;2023-04-25T11:15:10;9.67;;;7.90;;
38865;SDS011;62686;48.984;8.394;2023-04-25T11:17:39;10.50;;;8.87;;
38865;SDS011;62686;48.984;8.394;2023-04-25T11:20:07;10.77;;;7.93;;
38865;SDS011;62686;48.984;8.394;2023-04-25T11:22:38;10.00;;;8.17;;
38865;SDS011;62686;48.984;8.394;2023-04-25T11:25:08;9.60;;;8.60;;
38865;SDS011;62686;48.984;8.394;2023-04-25T11:27:38;8.83;;;7.93;;
38865;SDS011;62686;48.984;8.394;2023-04-25T11:30:18;9.43;;;8.00;;
38865;SDS011;62686;48.984;8.394;2023-04-25T11:32:47;10.93;;;8.30;;
38865;SDS011;62686;48.984;8.394;2023-04-25T11:35:16;11.00;;;8.37;;
38865;SDS011;62686;48.984;8.394;2023-04-25T11:37:44;11.23;;;8.73;;
38865;SDS011;62686;48.984;8.394;2023-04-25T11:40:12;14.30;;;9.70;;
38865;SDS011;62686;48.984;8.394;2023-04-25T11:42:43;11.70;;;9.33;;
38865;SDS011;62686;48.984;8.394;2023-04-25T11:45:14;12.13;;;9.80;;
38865;SDS011;62686;48.984;8.394;2023-04-25T11:47:44;12.43;;;10.20;;
38865;SDS011;62686;48.984;8.394;2023-04-25T11:50:12;13.77;;;9.73;;
38865;SDS011;62686;48.984;8.394;2023-04-25T11:52:42;11.57;;;8.80;;
38865;SDS011;62686;48.984;8.394;2023-04-25T11:55:13;13.27;;;8.40;;
38865;SDS011;62686;48.984;8.394;2023-04-25T11:57:42;10.33;;;8.10;;
38865;SDS011;62686;48.984;8.394;2023-04-25T12:00:12;9.93;;;7.23;;
38865;SDS011;62686;48.984;8.394;2023-04-25T12:02:46;7.60;;;6.83;;
38865;SDS011;62686;48.984;8.394;2023-04-25T12:05:15;8.17;;;7.37;;
38865;SDS011;62686;48.984;8.394;2023-04-25T12:07:47;8.53;;;6.97;;
38865;SDS011;62686;48.984;8.394;2023-04-25T12:10:16;8.87;;;7.07;;
38865;SDS011;62686;48.984;8.394;2023-04-25T12:12:46;10.07;;;8.00;;
38865;SDS011;62686;48.984;8.394;2023-04-25T12:15:16;11.83;;;7.77;;
38865;SDS011;62686;48.984;8.394;2023-04-25T12:17:48;8.30;;;7.30;;
38865;SDS011;62686;48.984;8.394;2023-04-25T12:20:17;11.47;;;7.90;;
38865;SDS011;62686;48.984;8.394;2023-04-25T12:22:50;8.87;;;7.40;;
38865;SDS011;62686;48.984;8.394;2023-04-25T12:25:34;8.97;;;6.93;;
38865;SDS011;62686;48.984;8.394;2023-04-25T12:28:09;10.70;;;6.63;;
38865;SDS011;62686;48.984;8.394;2023-04-25T12:30:58;9.73;;;6.30;;
38865;SDS011;62686;48.984;8.394;2023-04-25T12:33:30;9.60;;;6.07;;
38865;SDS011;62686;48.984;8.394;2023-04-25T12:36:00;10.33;;;6.50;;
38865;SDS011;62686;48.984;8.394;2023-04-25T12:38:35;8.83;;;6.17;;
38865;SDS011;62686;48.984;8.394;2023-04-25T12:41:05;6.77;;;5.40;;
38865;SDS011;62686;48.984;8.394;2023-04-25T12:43:34;5.97;;;4.60;;
38865;SDS011;62686;48.984;8.394;2023-04-25T12:46:02;5.15;;;4.65;;
38865;SDS011;62686;48.984;8.394;2023-04-25T12:48:32;5.73;;;4.47;;
38865;SDS011;62686;48.984;8.394;2023-04-25T12:51:00;5.28;;;4.03;;
38865;SDS011;62686;48.984;8.394;2023-04-25T12:53:29;5.32;;;4.53;;
38865;SDS011;62686;48.984;8.394;2023-04-25T12:55:59;4.05;;;3.60;;
38865;SDS011;62686;48.984;8.394;2023-04-25T12:58:27;5.43;;;4.25;;
38865;SDS011;62686;48.984;8.394;2023-04-25T13:00:55;5.50;;;4.03;;
38865;SDS011;62686;48.984;8.394;2023-04-25T13:03:24;5.25;;;3.95;;
38865;SDS011;62686;48.984;8.394;2023-04-25T13:05:53;5.95;;;4.20;;
38865;SDS011;62686;48.984;8.394;2023-04-25T13:08:23;5.13;;;4.30;;
38865;SDS011;62686;48.984;8.394;2023-04-25T13:10:52;4.68;;;3.90;;
38865;SDS011;62686;48.984;8.394;2023-04-25T13:13:20;6.35;;;4.55;;
38865;SDS011;62686;48.984;8.394;2023-04-25T13:15:48;6.20;;;3.92;;
38865;SDS011;62686;48.984;8.394;2023-04-25T13:18:19;6.60;;;4.03;;
38865;SDS011;62686;48.984;8.394;2023-04-25T13:20:47;4.75;;;3.15;;
38865;SDS011;62686;48.984;8.394;2023-04-25T13:23:17;4.32;;;3.80;;
38865;SDS011;62686;48.984;8.394;2023-04-25T13:25:46;3.78;;;3.22;;
38865;SDS011;62686;48.984;8.394;2023-04-25T13:28:15;3.47;;;3.15;;
38865;SDS011;62686;48.984;8.394;2023-04-25T13:30:43;4.90;;;3.05;;
38865;SDS011;62686;48.984;8.394;2023-04-25T13:33:13;5.85;;;3.05;;
38865;SDS011;62686;48.984;8.394;2023-04-25T13:35:41;3.22;;;2.78;;
38865;SDS011;62686;48.984;8.394;2023-04-25T13:38:13;2.72;;;2.50;;
38865;SDS011;62686;48.984;8.394;2023-04-25T13:40:42;4.20;;;2.85;;
38865;SDS011;62686;48.984;8.394;2023-04-25T13:43:12;4.63;;;2.70;;
38865;SDS011;62686;48.984;8.394;2023-04-25T13:45:40;4.85;;;2.10;;
38865;SDS011;62686;48.984;8.394;2023-04-25T13:48:09;3.72;;;2.22;;
38865;SDS011;62686;48.984;8.394;2023-04-25T13:53:13;3.10;;;1.90;;
38865;SDS011;62686;48.984;8.394;2023-04-25T13:55:46;2.53;;;1.80;;
38865;SDS011;62686;48.984;8.394;2023-04-25T13:58:16;5.45;;;1.90;;
38865;SDS011;62686;48.984;8.394;2023-04-25T14:00:51;1.95;;;1.15;;
38865;SDS011;62686;48.984;8.394;2023-04-25T14:06:05;2.65;;;1.60;;
38865;SDS011;62686;48.984;8.394;2023-04-25T14:08:49;1.50;;;1.40;;
38865;SDS011;62686;48.984;8.394;2023-04-25T14:11:19;1.40;;;1.23;;
38865;SDS011;62686;48.984;8.394;2023-04-25T14:13:52;3.40;;;1.50;;
38865;SDS011;62686;48.984;8.394;2023-04-25T14:16:24;2.20;;;1.42;;
38865;SDS011;62686;48.984;8.394;2023-04-25T14:18:57;2.88;;;2.10;;
38865;SDS011;62686;48.984;8.394;2023-04-25T14:21:28;2.40;;;1.85;;
38865;SDS011;62686;48.984;8.394;2023-04-25T14:24:10;4.68;;;2.25;;
38865;SDS011;62686;48.984;8.394;2023-04-25T14:26:58;4.97;;;2.42;;
38865;SDS011;62686;48.984;8.394;2023-04-25T14:29:31;2.67;;;1.63;;
38865;SDS011;62686;48.984;8.394;2023-04-25T14:32:01;3.05;;;1.90;;
38865;SDS011;62686;48.984;8.394;2023-04-25T14:34:31;3.17;;;2.30;;
38865;SDS011;62686;48.984;8.394;2023-04-25T14:37:02;2.03;;;1.70;;
38865;SDS011;62686;48.984;8.394;2023-04-25T14:39:34;2.42;;;1.70;;
38865;SDS011;62686;48.984;8.394;2023-04-25T14:42:05;2.03;;;1.70;;
38865;SDS011;62686;48.984;8.394;2023-04-25T14:44:36;3.42;;;1.65;;
38865;SDS011;62686;48.984;8.394;2023-04-25T14:47:08;3.90;;;2.08;;
38865;SDS011;62686;48.984;8.394;2023-04-25T14:49:39;3.97;;;1.80;;
38865;SDS011;62686;48.984;8.394;2023-04-25T14:52:09;2.95;;;1.90;;
38865;SDS011;62686;48.984;8.394;2023-04-25T14:54:38;4.32;;;1.92;;
38865;SDS011;62686;48.984;8.394;2023-04-25T14:57:08;3.20;;;1.85;;
38865;SDS011;62686;48.984;8.394;2023-04-25T14:59:37;3.72;;;1.80;;
38865;SDS011;62686;48.984;8.394;2023-04-25T15:02:06;3.25;;;1.80;;
38865;SDS011;62686;48.984;8.394;2023-04-25T15:04:34;3.33;;;1.92;;
38865;SDS011;62686;48.984;8.394;2023-04-25T15:07:03;2.58;;;1.90;;
38865;SDS011;62686;48.984;8.394;2023-04-25T15:09:33;2.90;;;1.90;;
38865;SDS011;62686;48.984;8.394;2023-04-25T15:12:03;3.88;;;1.98;;
38865;SDS011;62686;48.984;8.394;2023-04-25T15:14:34;5.72;;;2.10;;
38865;SDS011;62686;48.984;8.394;2023-04-25T15:17:02;10.40;;;6.82;;
38865;SDS011;62686;48.984;8.394;2023-04-25T15:19:31;4.63;;;2.38;;
38865;SDS011;62686;48.984;8.394;2023-04-25T15:22:00;3.58;;;2.15;;
38865;SDS011;62686;48.984;8.394;2023-04-25T15:27:21;5.90;;;2.70;;